Cumberland, Iowa
Current Conditions -  °F | °C
As of 7:35 PM on Friday 19 Dec 2014 (Local Time) from KAIO Reporting Station
Haze Haze  
Wind Chill: 19°   Ceiling: 300
Heat Index: 28°   Visibility: 3mi
Dew Point: 28°   Wind: 10mph
Humidity: 100%   Direction: 180°S
Pressure: 30.18"   Gusts: NA
Location:  41.27°N, 94.87°W
Report Text: KAIO 200135Z AUTO 18009KT 3SM BR OVC003 M02/M02 A3018 RMK AO2
Loading
Personal Weather Stations






























Interactive Weather Map New forecast layout! Learn more

10-Day Weather Forecast

Advertisements
Track Severe Weather on mobile